sensor_id;sensor_type;location;lat;lon;timestamp;temperature;humidity
8643;DHT22;4359;49.358;11.256;2023-05-10T00:00:45;13.00;99.90
8643;DHT22;4359;49.358;11.256;2023-05-10T00:03:11;13.00;99.90
8643;DHT22;4359;49.358;11.256;2023-05-10T00:05:37;12.90;99.90
8643;DHT22;4359;49.358;11.256;2023-05-10T00:08:03;12.80;99.90
8643;DHT22;4359;49.358;11.256;2023-05-10T00:10:29;12.80;99.90
8643;DHT22;4359;49.358;11.256;2023-05-10T00:12:54;12.70;99.90
8643;DHT22;4359;49.358;11.256;2023-05-10T00:15:20;12.60;99.90
8643;DHT22;4359;49.358;11.256;2023-05-10T00:17:45;12.60;99.90
8643;DHT22;4359;49.358;11.256;2023-05-10T00:20:11;12.60;99.90
8643;DHT22;4359;49.358;11.256;2023-05-10T00:22:37;12.60;99.90
8643;DHT22;4359;49.358;11.256;2023-05-10T00:25:03;12.70;99.90
8643;DHT22;4359;49.358;11.256;2023-05-10T00:27:28;12.60;99.90
8643;DHT22;4359;49.358;11.256;2023-05-10T00:29:54;12.60;99.90
8643;DHT22;4359;49.358;11.256;2023-05-10T00:32:20;12.60;99.90
8643;DHT22;4359;49.358;11.256;2023-05-10T00:34:46;12.50;99.90
8643;DHT22;4359;49.358;11.256;2023-05-10T00:37:11;12.40;99.90
8643;DHT22;4359;49.358;11.256;2023-05-10T00:39:37;12.40;99.90
8643;DHT22;4359;49.358;11.256;2023-05-10T00:42:02;12.40;99.90
8643;DHT22;4359;49.358;11.256;2023-05-10T00:44:29;12.40;99.90
8643;DHT22;4359;49.358;11.256;2023-05-10T00:46:56;12.30;99.90
8643;DHT22;4359;49.358;11.256;2023-05-10T00:49:22;12.30;99.90
8643;DHT22;4359;49.358;11.256;2023-05-10T00:51:48;12.20;99.90
8643;DHT22;4359;49.358;11.256;2023-05-10T00:54:15;12.20;99.90
8643;DHT22;4359;49.358;11.256;2023-05-10T00:56:41;12.10;99.90
8643;DHT22;4359;49.358;11.256;2023-05-10T00:59:08;12.00;99.90
8643;DHT22;4359;49.358;11.256;2023-05-10T01:01:35;11.90;99.90
8643;DHT22;4359;49.358;11.256;2023-05-10T01:04:02;11.80;99.90
8643;DHT22;4359;49.358;11.256;2023-05-10T01:06:28;11.70;99.90
8643;DHT22;4359;49.358;11.256;2023-05-10T01:08:54;11.70;99.90
8643;DHT22;4359;49.358;11.256;2023-05-10T01:11:21;11.60;99.90
8643;DHT22;4359;49.358;11.256;2023-05-10T01:13:52;11.60;99.90
8643;DHT22;4359;49.358;11.256;2023-05-10T01:16:20;11.70;99.90
8643;DHT22;4359;49.358;11.256;2023-05-10T01:18:46;11.80;99.90
8643;DHT22;4359;49.358;11.256;2023-05-10T01:21:37;11.70;99.90
8643;DHT22;4359;49.358;11.256;2023-05-10T01:27:19;11.70;99.90
8643;DHT22;4359;49.358;11.256;2023-05-10T01:38:29;12.00;99.90
8643;DHT22;4359;49.358;11.256;2023-05-10T01:44:31;12.00;99.90
8643;DHT22;4359;49.358;11.256;2023-05-10T01:47:10;12.00;99.90
8643;DHT22;4359;49.358;11.256;2023-05-10T01:49:49;12.10;99.90
8643;DHT22;4359;49.358;11.256;2023-05-10T01:52:18;12.10;99.90
8643;DHT22;4359;49.358;11.256;2023-05-10T01:54:55;12.20;99.90
8643;DHT22;4359;49.358;11.256;2023-05-10T01:57:24;12.10;99.90
8643;DHT22;4359;49.358;11.256;2023-05-10T01:59:51;12.10;99.90
8643;DHT22;4359;49.358;11.256;2023-05-10T02:02:20;12.10;99.90
8643;DHT22;4359;49.358;11.256;2023-05-10T02:04:47;12.10;99.90
8643;DHT22;4359;49.358;11.256;2023-05-10T02:07:15;12.10;99.90
8643;DHT22;4359;49.358;11.256;2023-05-10T02:09:44;12.10;99.90
8643;DHT22;4359;49.358;11.256;2023-05-10T02:12:13;12.10;99.90
8643;DHT22;4359;49.358;11.256;2023-05-10T02:14:41;12.10;99.90
8643;DHT22;4359;49.358;11.256;2023-05-10T02:17:08;12.00;99.90
8643;DHT22;4359;49.358;11.256;2023-05-10T02:19:37;12.00;99.90
8643;DHT22;4359;49.358;11.256;2023-05-10T02:22:04;12.10;99.90
8643;DHT22;4359;49.358;11.256;2023-05-10T02:24:32;12.00;99.90
8643;DHT22;4359;49.358;11.256;2023-05-10T02:26:58;12.10;99.90
8643;DHT22;4359;49.358;11.256;2023-05-10T02:29:25;12.10;99.90
8643;DHT22;4359;49.358;11.256;2023-05-10T02:31:53;12.10;99.90
8643;DHT22;4359;49.358;11.256;2023-05-10T02:34:23;12.10;99.90
8643;DHT22;4359;49.358;11.256;2023-05-10T02:36:51;12.10;99.90
8643;DHT22;4359;49.358;11.256;2023-05-10T02:39:18;12.20;99.90
8643;DHT22;4359;49.358;11.256;2023-05-10T02:41:45;12.30;99.90
8643;DHT22;4359;49.358;11.256;2023-05-10T02:44:14;12.30;99.90
8643;DHT22;4359;49.358;11.256;2023-05-10T02:46:41;12.30;99.90
8643;DHT22;4359;49.358;11.256;2023-05-10T02:49:07;12.20;99.90
8643;DHT22;4359;49.358;11.256;2023-05-10T02:51:35;12.20;99.90
8643;DHT22;4359;49.358;11.256;2023-05-10T02:54:09;12.20;99.90
8643;DHT22;4359;49.358;11.256;2023-05-10T02:56:44;12.20;99.90
8643;DHT22;4359;49.358;11.256;2023-05-10T02:59:12;12.20;99.90
8643;DHT22;4359;49.358;11.256;2023-05-10T03:01:38;12.10;99.90
8643;DHT22;4359;49.358;11.256;2023-05-10T03:04:04;12.10;99.90
8643;DHT22;4359;49.358;11.256;2023-05-10T03:06:29;12.20;99.90
8643;DHT22;4359;49.358;11.256;2023-05-10T03:08:55;12.20;99.90
8643;DHT22;4359;49.358;11.256;2023-05-10T03:14:21;12.20;99.90
8643;DHT22;4359;49.358;11.256;2023-05-10T03:17:00;12.30;99.90
8643;DHT22;4359;49.358;11.256;2023-05-10T03:19:34;12.30;99.90
8643;DHT22;4359;49.358;11.256;2023-05-10T03:22:06;12.30;99.90
8643;DHT22;4359;49.358;11.256;2023-05-10T03:24:35;12.30;99.90
8643;DHT22;4359;49.358;11.256;2023-05-10T03:27:02;12.30;99.90
8643;DHT22;4359;49.358;11.256;2023-05-10T03:29:30;12.40;99.90
8643;DHT22;4359;49.358;11.256;2023-05-10T03:31:58;12.40;99.90
8643;DHT22;4359;49.358;11.256;2023-05-10T03:34:25;12.40;99.90
8643;DHT22;4359;49.358;11.256;2023-05-10T03:36:51;12.40;99.90
8643;DHT22;4359;49.358;11.256;2023-05-10T03:39:16;12.40;99.90
8643;DHT22;4359;49.358;11.256;2023-05-10T03:41:42;12.40;99.90
8643;DHT22;4359;49.358;11.256;2023-05-10T03:44:08;12.50;99.90
8643;DHT22;4359;49.358;11.256;2023-05-10T03:46:33;12.50;99.90
8643;DHT22;4359;49.358;11.256;2023-05-10T03:48:59;12.50;99.90
8643;DHT22;4359;49.358;11.256;2023-05-10T03:51:25;12.50;99.90
8643;DHT22;4359;49.358;11.256;2023-05-10T03:53:54;12.50;99.90
8643;DHT22;4359;49.358;11.256;2023-05-10T03:56:20;12.40;99.90
8643;DHT22;4359;49.358;11.256;2023-05-10T03:58:46;12.50;99.90
8643;DHT22;4359;49.358;11.256;2023-05-10T04:01:12;12.40;99.90
8643;DHT22;4359;49.358;11.256;2023-05-10T04:03:37;12.50;99.90
8643;DHT22;4359;49.358;11.256;2023-05-10T04:06:03;12.50;99.90
8643;DHT22;4359;49.358;11.256;2023-05-10T04:08:29;12.50;99.90
8643;DHT22;4359;49.358;11.256;2023-05-10T04:11:05;12.50;99.90
8643;DHT22;4359;49.358;11.256;2023-05-10T04:13:31;12.50;99.90
8643;DHT22;4359;49.358;11.256;2023-05-10T04:15:57;12.50;99.90
8643;DHT22;4359;49.358;11.256;2023-05-10T04:18:23;12.50;99.90
8643;DHT22;4359;49.358;11.256;2023-05-10T04:20:48;12.50;99.90
8643;DHT22;4359;49.358;11.256;2023-05-10T04:23:14;12.50;99.90
8643;DHT22;4359;49.358;11.256;2023-05-10T04:25:42;12.60;99.90
8643;DHT22;4359;49.358;11.256;2023-05-10T04:28:07;12.60;99.90
8643;DHT22;4359;49.358;11.256;2023-05-10T04:30:34;12.60;99.90
8643;DHT22;4359;49.358;11.256;2023-05-10T04:33:00;12.70;99.90
8643;DHT22;4359;49.358;11.256;2023-05-10T04:35:27;12.70;99.90
8643;DHT22;4359;49.358;11.256;2023-05-10T04:37:53;12.60;99.90
8643;DHT22;4359;49.358;11.256;2023-05-10T04:40:19;12.60;99.90
8643;DHT22;4359;49.358;11.256;2023-05-10T04:42:45;12.60;99.90
8643;DHT22;4359;49.358;11.256;2023-05-10T04:45:11;12.60;99.90
8643;DHT22;4359;49.358;11.256;2023-05-10T04:47:37;12.60;99.90
8643;DHT22;4359;49.358;11.256;2023-05-10T04:50:03;12.60;99.90
8643;DHT22;4359;49.358;11.256;2023-05-10T04:52:29;12.70;99.90
8643;DHT22;4359;49.358;11.256;2023-05-10T04:54:55;12.70;99.90
8643;DHT22;4359;49.358;11.256;2023-05-10T04:57:20;12.70;99.90
8643;DHT22;4359;49.358;11.256;2023-05-10T04:59:46;12.70;99.90
8643;DHT22;4359;49.358;11.256;2023-05-10T05:02:12;12.70;99.90
8643;DHT22;4359;49.358;11.256;2023-05-10T05:04:37;12.80;99.90
8643;DHT22;4359;49.358;11.256;2023-05-10T05:07:03;12.90;99.90
8643;DHT22;4359;49.358;11.256;2023-05-10T05:09:29;12.90;99.90
8643;DHT22;4359;49.358;11.256;2023-05-10T05:11:54;12.90;99.90
8643;DHT22;4359;49.358;11.256;2023-05-10T05:14:20;13.00;99.90
8643;DHT22;4359;49.358;11.256;2023-05-10T05:16:46;13.00;99.90
8643;DHT22;4359;49.358;11.256;2023-05-10T05:19:12;13.20;99.90
8643;DHT22;4359;49.358;11.256;2023-05-10T05:21:38;13.20;99.90
8643;DHT22;4359;49.358;11.256;2023-05-10T05:24:10;13.20;99.90
8643;DHT22;4359;49.358;11.256;2023-05-10T05:26:38;13.20;99.90
8643;DHT22;4359;49.358;11.256;2023-05-10T05:29:03;13.10;99.90
8643;DHT22;4359;49.358;11.256;2023-05-10T05:31:29;13.10;99.90
8643;DHT22;4359;49.358;11.256;2023-05-10T05:33:55;13.10;99.90
8643;DHT22;4359;49.358;11.256;2023-05-10T05:36:21;13.10;99.90
8643;DHT22;4359;49.358;11.256;2023-05-10T05:38:46;13.10;99.90
8643;DHT22;4359;49.358;11.256;2023-05-10T05:41:13;13.10;99.90
8643;DHT22;4359;49.358;11.256;2023-05-10T05:43:38;13.20;99.90
8643;DHT22;4359;49.358;11.256;2023-05-10T05:46:04;13.30;99.90
8643;DHT22;4359;49.358;11.256;2023-05-10T05:48:30;13.60;99.90
8643;DHT22;4359;49.358;11.256;2023-05-10T05:50:57;13.80;99.90
8643;DHT22;4359;49.358;11.256;2023-05-10T05:53:23;13.90;99.90
8643;DHT22;4359;49.358;11.256;2023-05-10T05:55:57;14.10;99.90
8643;DHT22;4359;49.358;11.256;2023-05-10T05:58:23;14.20;99.90
8643;DHT22;4359;49.358;11.256;2023-05-10T06:00:50;14.20;99.90
8643;DHT22;4359;49.358;11.256;2023-05-10T06:03:16;14.20;99.90
8643;DHT22;4359;49.358;11.256;2023-05-10T06:05:41;14.10;99.90
8643;DHT22;4359;49.358;11.256;2023-05-10T06:08:07;14.10;99.90
8643;DHT22;4359;49.358;11.256;2023-05-10T06:10:32;14.10;99.90
8643;DHT22;4359;49.358;11.256;2023-05-10T06:12:58;14.10;99.90
8643;DHT22;4359;49.358;11.256;2023-05-10T06:15:24;13.70;99.90
8643;DHT22;4359;49.358;11.256;2023-05-10T06:17:49;13.70;99.90
8643;DHT22;4359;49.358;11.256;2023-05-10T06:20:16;13.70;99.90
8643;DHT22;4359;49.358;11.256;2023-05-10T06:22:41;13.90;99.90
8643;DHT22;4359;49.358;11.256;2023-05-10T06:25:08;13.80;99.90
8643;DHT22;4359;49.358;11.256;2023-05-10T06:27:34;13.90;99.90
8643;DHT22;4359;49.358;11.256;2023-05-10T06:29:59;13.80;99.90
8643;DHT22;4359;49.358;11.256;2023-05-10T06:32:25;13.70;99.90
8643;DHT22;4359;49.358;11.256;2023-05-10T06:34:51;13.90;99.90
8643;DHT22;4359;49.358;11.256;2023-05-10T06:37:17;14.00;99.90
8643;DHT22;4359;49.358;11.256;2023-05-10T06:39:43;14.30;99.90
8643;DHT22;4359;49.358;11.256;2023-05-10T06:42:08;14.40;99.90
8643;DHT22;4359;49.358;11.256;2023-05-10T06:44:34;14.40;99.90
8643;DHT22;4359;49.358;11.256;2023-05-10T06:47:00;14.20;99.90
8643;DHT22;4359;49.358;11.256;2023-05-10T06:49:25;14.20;99.90
8643;DHT22;4359;49.358;11.256;2023-05-10T06:51:51;14.00;99.90
8643;DHT22;4359;49.358;11.256;2023-05-10T06:54:17;13.80;99.90
8643;DHT22;4359;49.358;11.256;2023-05-10T06:56:43;13.90;99.90
8643;DHT22;4359;49.358;11.256;2023-05-10T06:59:08;14.00;99.90
8643;DHT22;4359;49.358;11.256;2023-05-10T07:01:34;14.20;99.90
8643;DHT22;4359;49.358;11.256;2023-05-10T07:04:00;14.20;99.90
8643;DHT22;4359;49.358;11.256;2023-05-10T07:06:26;14.30;99.90
8643;DHT22;4359;49.358;11.256;2023-05-10T07:08:52;14.50;99.90
8643;DHT22;4359;49.358;11.256;2023-05-10T07:11:18;14.70;99.90
8643;DHT22;4359;49.358;11.256;2023-05-10T07:13:43;14.70;99.90
8643;DHT22;4359;49.358;11.256;2023-05-10T07:16:11;15.10;99.90
8643;DHT22;4359;49.358;11.256;2023-05-10T07:18:37;15.10;99.90
8643;DHT22;4359;49.358;11.256;2023-05-10T07:21:03;15.20;99.90
8643;DHT22;4359;49.358;11.256;2023-05-10T07:23:28;15.30;99.90
8643;DHT22;4359;49.358;11.256;2023-05-10T07:25:55;15.30;99.90
8643;DHT22;4359;49.358;11.256;2023-05-10T07:28:22;15.40;99.90
8643;DHT22;4359;49.358;11.256;2023-05-10T07:30:48;15.60;99.90
8643;DHT22;4359;49.358;11.256;2023-05-10T07:33:14;15.80;99.90
8643;DHT22;4359;49.358;11.256;2023-05-10T07:35:40;15.60;99.90
8643;DHT22;4359;49.358;11.256;2023-05-10T07:38:06;15.00;99.90
8643;DHT22;4359;49.358;11.256;2023-05-10T07:40:31;15.00;99.90
8643;DHT22;4359;49.358;11.256;2023-05-10T07:42:57;14.80;99.90
8643;DHT22;4359;49.358;11.256;2023-05-10T07:45:23;14.80;99.90
8643;DHT22;4359;49.358;11.256;2023-05-10T07:47:49;14.80;99.90
8643;DHT22;4359;49.358;11.256;2023-05-10T07:50:15;14.90;99.90
8643;DHT22;4359;49.358;11.256;2023-05-10T07:52:41;14.70;99.90
8643;DHT22;4359;49.358;11.256;2023-05-10T07:55:07;14.50;99.90
8643;DHT22;4359;49.358;11.256;2023-05-10T07:57:34;14.50;99.90
8643;DHT22;4359;49.358;11.256;2023-05-10T08:00:00;14.40;99.90
8643;DHT22;4359;49.358;11.256;2023-05-10T08:02:25;14.40;99.90
8643;DHT22;4359;49.358;11.256;2023-05-10T08:04:51;14.30;99.90
8643;DHT22;4359;49.358;11.256;2023-05-10T08:07:17;14.30;99.90
8643;DHT22;4359;49.358;11.256;2023-05-10T08:09:43;14.50;99.90
8643;DHT22;4359;49.358;11.256;2023-05-10T08:12:08;14.60;99.90
8643;DHT22;4359;49.358;11.256;2023-05-10T08:14:34;15.00;99.90
8643;DHT22;4359;49.358;11.256;2023-05-10T08:17:02;15.10;99.90
8643;DHT22;4359;49.358;11.256;2023-05-10T08:19:28;15.10;99.90
8643;DHT22;4359;49.358;11.256;2023-05-10T08:21:54;15.20;99.90
8643;DHT22;4359;49.358;11.256;2023-05-10T08:24:21;15.40;99.90
8643;DHT22;4359;49.358;11.256;2023-05-10T08:26:47;15.60;99.90
8643;DHT22;4359;49.358;11.256;2023-05-10T08:29:13;15.40;99.90
8643;DHT22;4359;49.358;11.256;2023-05-10T08:31:39;15.40;99.90
8643;DHT22;4359;49.358;11.256;2023-05-10T08:34:04;15.40;99.90
8643;DHT22;4359;49.358;11.256;2023-05-10T08:36:30;15.40;99.90
8643;DHT22;4359;49.358;11.256;2023-05-10T08:38:57;15.70;99.90
8643;DHT22;4359;49.358;11.256;2023-05-10T08:41:24;15.90;99.90
8643;DHT22;4359;49.358;11.256;2023-05-10T08:43:52;16.00;99.90
8643;DHT22;4359;49.358;11.256;2023-05-10T08:46:20;16.30;99.90
8643;DHT22;4359;49.358;11.256;2023-05-10T08:48:48;16.90;99.90
8643;DHT22;4359;49.358;11.256;2023-05-10T08:51:18;17.10;99.90
8643;DHT22;4359;49.358;11.256;2023-05-10T08:53:45;17.40;99.90
8643;DHT22;4359;49.358;11.256;2023-05-10T08:56:11;17.80;99.90
8643;DHT22;4359;49.358;11.256;2023-05-10T08:58:38;18.10;99.90
8643;DHT22;4359;49.358;11.256;2023-05-10T09:01:04;18.30;99.90
8643;DHT22;4359;49.358;11.256;2023-05-10T09:03:30;17.90;99.90
8643;DHT22;4359;49.358;11.256;2023-05-10T09:05:56;17.40;99.90
8643;DHT22;4359;49.358;11.256;2023-05-10T09:08:25;17.70;99.90
8643;DHT22;4359;49.358;11.256;2023-05-10T09:10:52;17.80;99.90
8643;DHT22;4359;49.358;11.256;2023-05-10T09:13:18;17.60;99.90
8643;DHT22;4359;49.358;11.256;2023-05-10T09:15:45;17.60;99.90
8643;DHT22;4359;49.358;11.256;2023-05-10T09:18:11;17.20;99.90
8643;DHT22;4359;49.358;11.256;2023-05-10T09:20:36;17.10;99.90
8643;DHT22;4359;49.358;11.256;2023-05-10T09:23:02;17.00;99.90
8643;DHT22;4359;49.358;11.256;2023-05-10T09:25:28;17.10;99.90
8643;DHT22;4359;49.358;11.256;2023-05-10T09:27:53;17.00;99.90
8643;DHT22;4359;49.358;11.256;2023-05-10T09:32:49;16.60;99.90
8643;DHT22;4359;49.358;11.256;2023-05-10T09:35:20;16.60;99.90
8643;DHT22;4359;49.358;11.256;2023-05-10T09:37:48;16.50;99.90
8643;DHT22;4359;49.358;11.256;2023-05-10T09:40:16;16.10;99.90
8643;DHT22;4359;49.358;11.256;2023-05-10T09:42:54;15.70;99.90
8643;DHT22;4359;49.358;11.256;2023-05-10T09:45:22;14.80;99.90
8643;DHT22;4359;49.358;11.256;2023-05-10T09:47:48;14.10;99.90
8643;DHT22;4359;49.358;11.256;2023-05-10T09:50:14;13.80;99.90
8643;DHT22;4359;49.358;11.256;2023-05-10T09:52:55;13.90;99.90
8643;DHT22;4359;49.358;11.256;2023-05-10T09:55:25;14.00;99.90
8643;DHT22;4359;49.358;11.256;2023-05-10T09:58:00;14.40;99.90
8643;DHT22;4359;49.358;11.256;2023-05-10T10:00:26;14.70;99.90
8643;DHT22;4359;49.358;11.256;2023-05-10T10:02:57;15.10;99.90
8643;DHT22;4359;49.358;11.256;2023-05-10T10:05:34;15.40;99.90
8643;DHT22;4359;49.358;11.256;2023-05-10T10:08:03;16.00;99.90
8643;DHT22;4359;49.358;11.256;2023-05-10T10:10:31;16.70;99.90
8643;DHT22;4359;49.358;11.256;2023-05-10T10:12:57;17.10;99.90
8643;DHT22;4359;49.358;11.256;2023-05-10T10:15:24;17.00;99.90
8643;DHT22;4359;49.358;11.256;2023-05-10T10:17:51;16.70;99.90
8643;DHT22;4359;49.358;11.256;2023-05-10T10:20:18;16.20;99.90
8643;DHT22;4359;49.358;11.256;2023-05-10T10:22:44;16.10;99.90
8643;DHT22;4359;49.358;11.256;2023-05-10T10:25:12;16.00;99.90
8643;DHT22;4359;49.358;11.256;2023-05-10T10:27:43;16.10;99.90
8643;DHT22;4359;49.358;11.256;2023-05-10T10:30:35;16.20;99.90
8643;DHT22;4359;49.358;11.256;2023-05-10T10:33:28;16.60;99.90
8643;DHT22;4359;49.358;11.256;2023-05-10T10:35:59;17.40;99.90
8643;DHT22;4359;49.358;11.256;2023-05-10T10:38:25;17.70;99.90
8643;DHT22;4359;49.358;11.256;2023-05-10T10:41:11;18.10;99.90
8643;DHT22;4359;49.358;11.256;2023-05-10T10:52:39;17.50;99.90
8643;DHT22;4359;49.358;11.256;2023-05-10T10:55:07;17.50;99.90
8643;DHT22;4359;49.358;11.256;2023-05-10T11:02:59;17.80;99.90
8643;DHT22;4359;49.358;11.256;2023-05-10T11:10:38;18.00;99.90
8643;DHT22;4359;49.358;11.256;2023-05-10T11:13:08;18.00;99.90
8643;DHT22;4359;49.358;11.256;2023-05-10T11:15:39;17.70;99.90
8643;DHT22;4359;49.358;11.256;2023-05-10T11:18:26;17.40;99.90
8643;DHT22;4359;49.358;11.256;2023-05-10T11:20:52;17.50;99.90
8643;DHT22;4359;49.358;11.256;2023-05-10T11:23:21;17.50;99.90
8643;DHT22;4359;49.358;11.256;2023-05-10T11:25:48;17.40;99.90
8643;DHT22;4359;49.358;11.256;2023-05-10T11:28:16;17.40;99.90
8643;DHT22;4359;49.358;11.256;2023-05-10T11:30:44;17.40;99.90
8643;DHT22;4359;49.358;11.256;2023-05-10T11:33:14;17.10;99.90
8643;DHT22;4359;49.358;11.256;2023-05-10T11:35:40;16.80;99.90
8643;DHT22;4359;49.358;11.256;2023-05-10T11:38:07;16.60;99.90
8643;DHT22;4359;49.358;11.256;2023-05-10T11:40:33;16.70;99.90
8643;DHT22;4359;49.358;11.256;2023-05-10T11:42:59;16.70;99.90
8643;DHT22;4359;49.358;11.256;2023-05-10T11:45:25;17.00;99.90
8643;DHT22;4359;49.358;11.256;2023-05-10T11:47:51;17.20;99.90
8643;DHT22;4359;49.358;11.256;2023-05-10T11:50:17;17.30;99.90
8643;DHT22;4359;49.358;11.256;2023-05-10T11:52:43;17.20;99.90
8643;DHT22;4359;49.358;11.256;2023-05-10T11:55:09;17.40;99.90
8643;DHT22;4359;49.358;11.256;2023-05-10T11:57:35;17.60;99.90
8643;DHT22;4359;49.358;11.256;2023-05-10T12:00:01;17.90;99.90
8643;DHT22;4359;49.358;11.256;2023-05-10T12:02:29;18.00;99.90
8643;DHT22;4359;49.358;11.256;2023-05-10T12:04:55;18.20;99.90
8643;DHT22;4359;49.358;11.256;2023-05-10T12:07:21;18.40;99.90
8643;DHT22;4359;49.358;11.256;2023-05-10T12:10:04;18.70;99.90
8643;DHT22;4359;49.358;11.256;2023-05-10T12:12:44;19.00;99.90
8643;DHT22;4359;49.358;11.256;2023-05-10T12:15:20;18.90;99.90
8643;DHT22;4359;49.358;11.256;2023-05-10T12:17:47;18.60;99.90
8643;DHT22;4359;49.358;11.256;2023-05-10T12:20:19;18.30;99.90
8643;DHT22;4359;49.358;11.256;2023-05-10T12:22:52;18.30;99.90
8643;DHT22;4359;49.358;11.256;2023-05-10T12:25:18;18.40;99.90
8643;DHT22;4359;49.358;11.256;2023-05-10T12:27:53;18.40;99.90
8643;DHT22;4359;49.358;11.256;2023-05-10T12:30:23;18.30;99.90
8643;DHT22;4359;49.358;11.256;2023-05-10T12:32:49;17.90;99.90
8643;DHT22;4359;49.358;11.256;2023-05-10T12:35:15;17.50;99.90
8643;DHT22;4359;49.358;11.256;2023-05-10T12:37:44;17.40;99.90
8643;DHT22;4359;49.358;11.256;2023-05-10T12:40:11;17.50;99.90
8643;DHT22;4359;49.358;11.256;2023-05-10T12:42:38;17.60;99.90
8643;DHT22;4359;49.358;11.256;2023-05-10T12:45:05;17.50;99.90
8643;DHT22;4359;49.358;11.256;2023-05-10T12:47:32;17.50;99.90
8643;DHT22;4359;49.358;11.256;2023-05-10T12:49:59;17.40;99.90
8643;DHT22;4359;49.358;11.256;2023-05-10T12:52:25;17.50;99.90
8643;DHT22;4359;49.358;11.256;2023-05-10T12:54:52;17.60;99.90
8643;DHT22;4359;49.358;11.256;2023-05-10T12:57:18;17.60;99.90
8643;DHT22;4359;49.358;11.256;2023-05-10T12:59:44;17.80;99.90
8643;DHT22;4359;49.358;11.256;2023-05-10T13:02:09;17.80;99.90
8643;DHT22;4359;49.358;11.256;2023-05-10T13:04:35;17.70;99.90
8643;DHT22;4359;49.358;11.256;2023-05-10T13:07:05;17.70;99.90
8643;DHT22;4359;49.358;11.256;2023-05-10T13:09:31;17.90;99.90
8643;DHT22;4359;49.358;11.256;2023-05-10T13:11:56;17.80;99.90
8643;DHT22;4359;49.358;11.256;2023-05-10T13:14:22;17.70;99.90
8643;DHT22;4359;49.358;11.256;2023-05-10T13:16:48;18.10;99.90
8643;DHT22;4359;49.358;11.256;2023-05-10T13:19:14;18.30;99.90
8643;DHT22;4359;49.358;11.256;2023-05-10T13:21:40;18.20;99.90
8643;DHT22;4359;49.358;11.256;2023-05-10T13:24:10;18.20;99.90
8643;DHT22;4359;49.358;11.256;2023-05-10T13:26:36;18.40;99.90
8643;DHT22;4359;49.358;11.256;2023-05-10T13:29:02;18.70;99.90
8643;DHT22;4359;49.358;11.256;2023-05-10T13:31:28;18.90;99.90
8643;DHT22;4359;49.358;11.256;2023-05-10T13:33:54;18.70;99.90
8643;DHT22;4359;49.358;11.256;2023-05-10T13:36:20;18.80;99.90
8643;DHT22;4359;49.358;11.256;2023-05-10T13:38:45;19.00;99.90
8643;DHT22;4359;49.358;11.256;2023-05-10T13:41:11;19.00;99.90
8643;DHT22;4359;49.358;11.256;2023-05-10T13:43:37;18.60;99.90
8643;DHT22;4359;49.358;11.256;2023-05-10T13:46:02;18.80;99.90
8643;DHT22;4359;49.358;11.256;2023-05-10T13:48:28;18.80;99.90
8643;DHT22;4359;49.358;11.256;2023-05-10T13:50:54;18.80;99.90
8643;DHT22;4359;49.358;11.256;2023-05-10T13:53:20;18.90;99.90
8643;DHT22;4359;49.358;11.256;2023-05-10T13:55:46;18.80;99.90
8643;DHT22;4359;49.358;11.256;2023-05-10T13:58:12;19.10;99.90
8643;DHT22;4359;49.358;11.256;2023-05-10T14:00:38;19.50;99.90
8643;DHT22;4359;49.358;11.256;2023-05-10T14:03:03;19.70;99.90
8643;DHT22;4359;49.358;11.256;2023-05-10T14:05:30;19.50;99.90
8643;DHT22;4359;49.358;11.256;2023-05-10T14:07:56;19.10;99.90
8643;DHT22;4359;49.358;11.256;2023-05-10T14:10:22;18.90;99.90
8643;DHT22;4359;49.358;11.256;2023-05-10T14:12:49;18.90;99.90
8643;DHT22;4359;49.358;11.256;2023-05-10T14:15:14;18.90;99.90
8643;DHT22;4359;49.358;11.256;2023-05-10T14:17:40;18.80;99.90
8643;DHT22;4359;49.358;11.256;2023-05-10T14:20:06;18.60;99.90
8643;DHT22;4359;49.358;11.256;2023-05-10T14:22:32;18.40;99.90
8643;DHT22;4359;49.358;11.256;2023-05-10T14:24:58;18.10;99.90
8643;DHT22;4359;49.358;11.256;2023-05-10T14:27:24;17.80;99.90
8643;DHT22;4359;49.358;11.256;2023-05-10T14:29:50;17.70;99.90
8643;DHT22;4359;49.358;11.256;2023-05-10T14:32:15;17.60;99.90
8643;DHT22;4359;49.358;11.256;2023-05-10T14:34:41;17.50;99.90
8643;DHT22;4359;49.358;11.256;2023-05-10T14:37:06;17.50;99.90
8643;DHT22;4359;49.358;11.256;2023-05-10T14:39:32;17.50;99.90
8643;DHT22;4359;49.358;11.256;2023-05-10T14:41:58;17.40;99.90
8643;DHT22;4359;49.358;11.256;2023-05-10T14:44:24;17.30;99.90
8643;DHT22;4359;49.358;11.256;2023-05-10T14:46:50;17.20;99.90
8643;DHT22;4359;49.358;11.256;2023-05-10T14:49:16;17.20;99.90
8643;DHT22;4359;49.358;11.256;2023-05-10T14:51:42;17.20;99.90
8643;DHT22;4359;49.358;11.256;2023-05-10T14:54:08;17.10;99.90
8643;DHT22;4359;49.358;11.256;2023-05-10T14:56:33;17.00;99.90
8643;DHT22;4359;49.358;11.256;2023-05-10T14:58:59;17.00;99.90
8643;DHT22;4359;49.358;11.256;2023-05-10T15:01:25;17.00;99.90
8643;DHT22;4359;49.358;11.256;2023-05-10T15:03:51;16.80;99.90
8643;DHT22;4359;49.358;11.256;2023-05-10T15:06:16;16.80;99.90
8643;DHT22;4359;49.358;11.256;2023-05-10T15:08:42;16.90;99.90
8643;DHT22;4359;49.358;11.256;2023-05-10T15:11:08;17.10;99.90
8643;DHT22;4359;49.358;11.256;2023-05-10T15:13:34;17.20;99.90
8643;DHT22;4359;49.358;11.256;2023-05-10T15:16:00;17.20;99.90
8643;DHT22;4359;49.358;11.256;2023-05-10T15:18:25;17.30;99.90
8643;DHT22;4359;49.358;11.256;2023-05-10T15:20:51;17.30;99.90
8643;DHT22;4359;49.358;11.256;2023-05-10T15:23:17;17.60;99.90
8643;DHT22;4359;49.358;11.256;2023-05-10T15:25:42;17.90;99.90
8643;DHT22;4359;49.358;11.256;2023-05-10T15:28:08;17.60;99.90
8643;DHT22;4359;49.358;11.256;2023-05-10T15:30:34;17.30;99.90
8643;DHT22;4359;49.358;11.256;2023-05-10T15:32:59;17.00;99.90
8643;DHT22;4359;49.358;11.256;2023-05-10T15:35:26;16.90;99.90
8643;DHT22;4359;49.358;11.256;2023-05-10T15:37:51;16.70;99.90
8643;DHT22;4359;49.358;11.256;2023-05-10T15:40:17;16.20;99.90
8643;DHT22;4359;49.358;11.256;2023-05-10T15:42:43;15.90;99.90
8643;DHT22;4359;49.358;11.256;2023-05-10T15:45:09;15.60;99.90
8643;DHT22;4359;49.358;11.256;2023-05-10T15:47:35;15.40;99.90
8643;DHT22;4359;49.358;11.256;2023-05-10T15:50:01;15.30;99.90
8643;DHT22;4359;49.358;11.256;2023-05-10T15:52:27;15.10;99.90
8643;DHT22;4359;49.358;11.256;2023-05-10T15:54:52;15.00;99.90
8643;DHT22;4359;49.358;11.256;2023-05-10T15:57:18;14.90;99.90
8643;DHT22;4359;49.358;11.256;2023-05-10T15:59:44;14.90;99.90
8643;DHT22;4359;49.358;11.256;2023-05-10T16:02:10;14.80;99.90
8643;DHT22;4359;49.358;11.256;2023-05-10T16:04:36;14.60;99.90
8643;DHT22;4359;49.358;11.256;2023-05-10T16:07:02;14.50;99.90
8643;DHT22;4359;49.358;11.256;2023-05-10T16:09:28;14.50;99.90
8643;DHT22;4359;49.358;11.256;2023-05-10T16:11:54;14.50;99.90
8643;DHT22;4359;49.358;11.256;2023-05-10T16:14:21;14.50;99.90
8643;DHT22;4359;49.358;11.256;2023-05-10T16:16:48;14.50;99.90
8643;DHT22;4359;49.358;11.256;2023-05-10T16:19:14;14.60;99.90
8643;DHT22;4359;49.358;11.256;2023-05-10T16:21:40;14.60;99.90
8643;DHT22;4359;49.358;11.256;2023-05-10T16:24:06;14.60;99.90